Time;durP1;ratioP1;P1;durP2;ratioP2;P2;SDS_P1;SDS_P2;PMS_P1;PMS_P2;Temp;Humidity;BMP_temperature;BMP_pressure;BME280_temperature;BME280_humidity;BME280_pressure;Samples;Min_cycle;Max_cycle;Signal;HPM_P1;HPM_P2
2022/08/12 00:44:53;;;;;;;6.22;3.88;;;14.80;99.90;;;;;;5050451;28;20025;-79
2022/08/12 00:47:20;;;;;;;7.80;3.90;;;14.70;99.90;;;;;;5050097;28;20032;-78
2022/08/12 00:49:48;;;;;;;6.57;3.60;;;14.70;99.90;;;;;;5050446;28;20370;-79
2022/08/12 00:52:15;;;;;;;6.43;4.05;;;14.70;99.90;;;;;;5050345;28;20013;-78
2022/08/12 00:54:48;;;;;;;9.15;3.92;;;14.60;99.90;;;;;;5050344;28;20013;-79
2022/08/12 00:57:19;;;;;;;4.97;3.67;;;14.60;99.90;;;;;;5050002;28;20441;-79
2022/08/12 01:00:07;;;;;;;7.72;3.92;;;14.60;99.90;;;;;;5036676;28;20065;-78
2022/08/12 01:02:35;;;;;;;7.72;4.10;;;14.50;99.90;;;;;;5034079;28;20037;-78
2022/08/12 01:13:28;;;;;;;7.50;4.38;;;14.40;99.90;;;;;;5050457;28;20040;-79
2022/08/12 01:15:57;;;;;;;5.55;3.90;;;14.40;99.90;;;;;;5056705;28;20025;-78
2022/08/12 01:18:26;;;;;;;6.50;3.92;;;14.40;99.90;;;;;;5056463;28;20020;-79
2022/08/12 01:20:59;;;;;;;4.55;3.40;;;14.30;99.90;;;;;;5056758;28;20028;-79
2022/08/12 01:24:00;;;;;;;6.38;4.10;;;14.30;99.90;;;;;;5056495;28;20020;-78
2022/08/12 01:26:27;;;;;;;7.88;3.83;;;14.30;99.90;;;;;;5056434;28;20037;-79
2022/08/12 01:28:56;;;;;;;6.53;3.90;;;14.30;99.90;;;;;;5056355;28;20078;-79
2022/08/12 01:31:22;;;;;;;5.15;3.75;;;14.20;99.90;;;;;;5056646;28;20025;-79
2022/08/12 01:34:10;;;;;;;5.47;3.67;;;14.20;99.90;;;;;;5056595;28;20114;-79
2022/08/12 01:36:45;;;;;;;7.38;3.78;;;14.20;99.90;;;;;;5047136;28;20110;-78
2022/08/12 01:39:13;;;;;;;;;;;14.20;99.90;;;;;;5056518;28;20036;-79
2022/08/12 01:41:44;;;;;;;5.05;3.97;;;14.10;99.90;;;;;;5056680;28;19908;-79
2022/08/12 01:44:11;;;;;;;6.22;3.30;;;14.10;99.90;;;;;;5056312;28;20028;-78
2022/08/12 01:46:42;;;;;;;5.53;3.80;;;14.10;99.90;;;;;;5056663;28;20020;-79
2022/08/12 01:49:37;;;;;;;8.68;3.83;;;14.10;99.90;;;;;;5056370;28;20438;-78
2022/08/12 01:52:05;;;;;;;5.47;3.53;;;14.10;99.90;;;;;;5045594;28;20552;-78
2022/08/12 01:54:37;;;;;;;5.15;3.50;;;14.00;99.90;;;;;;5056736;28;20047;-78
2022/08/12 01:57:27;;;;;;;7.25;3.78;;;14.00;99.90;;;;;;5056275;28;20053;-78
2022/08/12 02:00:00;;;;;;;5.38;3.45;;;14.00;99.90;;;;;;5046357;28;20055;-78
2022/08/12 02:02:38;;;;;;;5.90;4.00;;;14.00;99.90;;;;;;5056318;28;20033;-78
2022/08/12 02:11:27;;;;;;;6.28;4.45;;;13.90;99.90;;;;;;5054272;28;20067;-78
2022/08/12 02:13:59;;;;;;;5.60;3.75;;;13.90;99.90;;;;;;5051149;28;20492;-78
2022/08/12 02:16:30;;;;;;;5.55;3.90;;;13.80;99.90;;;;;;5055810;28;20021;-78
2022/08/12 02:19:26;;;;;;;7.50;3.83;;;13.80;99.90;;;;;;5037486;28;20397;-78
2022/08/12 02:22:13;;;;;;;7.32;4.22;;;13.80;99.90;;;;;;5042347;28;20496;-78
2022/08/12 02:24:43;;;;;;;8.23;4.18;;;13.80;99.90;;;;;;5052522;28;20036;-78
2022/08/12 02:27:12;;;;;;;5.53;4.05;;;13.80;99.90;;;;;;5052706;28;20094;-79
2022/08/12 02:29:39;;;;;;;10.43;4.03;;;13.80;99.90;;;;;;5052664;28;20056;-79
2022/08/12 02:32:05;;;;;;;9.15;3.90;;;13.70;99.90;;;;;;5052726;28;20032;-78
2022/08/12 02:34:32;;;;;;;8.20;4.22;;;13.70;99.90;;;;;;5052126;28;20087;-79
2022/08/12 02:37:00;;;;;;;9.30;4.30;;;13.70;99.90;;;;;;5052648;28;20616;-78
2022/08/12 02:39:29;;;;;;;9.60;4.20;;;13.70;99.90;;;;;;5052418;28;20119;-79
2022/08/12 02:41:59;;;;;;;5.93;4.18;;;13.70;99.90;;;;;;5052284;28;20124;-78
2022/08/12 02:44:27;;;;;;;5.85;4.00;;;13.60;99.90;;;;;;5052571;28;20032;-79
2022/08/12 02:46:55;;;;;;;5.60;3.97;;;13.60;99.90;;;;;;5052386;28;20044;-78
2022/08/12 02:49:31;;;;;;;7.00;4.13;;;13.50;99.90;;;;;;5051976;28;20075;-78
2022/08/12 02:51:58;;;;;;;7.97;4.05;;;13.50;99.90;;;;;;5052184;28;20120;-78
2022/08/12 02:54:25;;;;;;;8.75;4.43;;;13.50;99.90;;;;;;5052206;28;20028;-78
2022/08/12 02:56:51;;;;;;;8.65;4.13;;;13.50;99.90;;;;;;5052189;28;20056;-78
2022/08/12 02:59:21;;;;;;;9.02;4.20;;;13.50;99.90;;;;;;5034420;28;20039;-78
2022/08/12 03:01:54;;;;;;;6.38;4.40;;;13.40;99.90;;;;;;5052180;28;20029;-78
2022/08/12 03:04:25;;;;;;;10.05;4.50;;;13.40;99.90;;;;;;5052102;28;20560;-78
2022/08/12 03:07:01;;;;;;;7.72;4.50;;;13.30;99.90;;;;;;5052076;28;20099;-78
2022/08/12 03:09:31;;;;;;;7.55;3.92;;;13.30;99.90;;;;;;5051876;28;20029;-78
2022/08/12 03:12:03;;;;;;;7.82;4.43;;;13.30;99.90;;;;;;5049058;28;20413;-78
2022/08/12 03:14:33;;;;;;;6.72;4.20;;;13.30;99.90;;;;;;5050319;28;20029;-78
2022/08/12 03:17:10;;;;;;;11.50;4.68;;;13.30;99.90;;;;;;5052063;28;20120;-78
2022/08/12 03:19:38;;;;;;;6.20;4.30;;;13.20;99.90;;;;;;5051674;28;20083;-79
2022/08/12 03:22:11;;;;;;;7.63;4.57;;;13.20;99.90;;;;;;5051783;28;20052;-79
2022/08/12 03:24:42;;;;;;;8.07;4.35;;;13.20;99.90;;;;;;5051820;28;20029;-78
2022/08/12 03:27:10;;;;;;;6.25;4.50;;;13.20;99.90;;;;;;5052020;28;20037;-78
2022/08/12 03:29:37;;;;;;;7.22;4.80;;;13.20;99.90;;;;;;5051414;28;20022;-78
2022/08/12 03:32:04;;;;;;;5.82;4.07;;;13.20;99.90;;;;;;5037900;28;20036;-78
2022/08/12 03:34:34;;;;;;;6.60;4.50;;;13.10;99.90;;;;;;5051316;28;20380;-78
2022/08/12 03:37:01;;;;;;;5.85;4.50;;;13.10;99.90;;;;;;5051065;28;20084;-79
2022/08/12 03:42:05;;;;;;;;;;;13.10;99.90;;;;;;5052293;28;20074;-78
2022/08/12 04:01:17;;;;;;;8.25;4.55;;;13.00;99.90;;;;;;5038770;28;20027;-78
2022/08/12 04:03:52;;;;;;;9.13;4.55;;;12.90;99.90;;;;;;5050857;28;20024;-78
2022/08/12 04:06:27;;;;;;;6.75;4.10;;;12.90;99.90;;;;;;5050992;28;20025;-78
2022/08/12 04:08:56;;;;;;;10.68;4.28;;;12.90;99.90;;;;;;5051031;28;20108;-78
2022/08/12 04:14:18;;;;;;;6.90;4.30;;;12.90;99.90;;;;;;5048798;28;20032;-78
2022/08/12 04:16:46;;;;;;;12.68;5.13;;;12.90;99.90;;;;;;5032867;28;20512;-78
2022/08/12 04:19:12;;;;;;;8.35;4.38;;;12.90;99.90;;;;;;5050298;28;20016;-78
2022/08/12 04:21:38;;;;;;;10.52;4.90;;;12.90;99.90;;;;;;5050477;28;20025;-78
2022/08/12 04:24:04;;;;;;;11.02;5.20;;;12.80;99.90;;;;;;5050010;28;20040;-78
2022/08/12 04:26:30;;;;;;;11.75;5.20;;;12.90;99.90;;;;;;5049825;28;20025;-78
2022/08/12 04:28:59;;;;;;;14.63;5.97;;;12.80;99.90;;;;;;5050096;28;20028;-78
2022/08/12 04:31:37;;;;;;;12.40;4.90;;;12.90;99.90;;;;;;5050239;28;20024;-78
2022/08/12 04:34:03;;;;;;;10.98;5.30;;;12.90;99.90;;;;;;5047908;28;20692;-78
2022/08/12 04:36:30;;;;;;;8.75;4.70;;;12.80;99.90;;;;;;5050070;28;20080;-78
2022/08/12 04:38:57;;;;;;;8.05;4.95;;;12.90;99.90;;;;;;5049823;28;20444;-78
2022/08/12 04:41:24;;;;;;;11.13;5.00;;;12.80;99.90;;;;;;5031952;28;20147;-78
2022/08/12 04:43:50;;;;;;;7.30;4.97;;;12.90;99.90;;;;;;5049955;28;20024;-78
2022/08/12 04:46:16;;;;;;;8.18;5.00;;;12.90;99.90;;;;;;5049088;28;20043;-78
2022/08/12 04:48:42;;;;;;;9.45;5.22;;;12.90;99.90;;;;;;5049398;28;20013;-78
2022/08/12 04:51:08;;;;;;;10.57;5.20;;;12.90;99.90;;;;;;5048340;28;20052;-78
2022/08/12 04:53:33;;;;;;;8.55;5.13;;;13.00;99.90;;;;;;5046457;28;20100;-78
2022/08/12 04:55:59;;;;;;;14.32;5.30;;;13.00;99.90;;;;;;5049477;28;20124;-78
2022/08/12 04:58:26;;;;;;;6.95;4.45;;;13.10;99.90;;;;;;5049766;28;20115;-78
2022/08/12 05:00:52;;;;;;;6.68;4.57;;;13.20;99.90;;;;;;5050103;28;20027;-78
2022/08/12 05:03:18;;;;;;;7.05;4.25;;;13.30;99.90;;;;;;5049845;28;20078;-78
2022/08/12 05:05:44;;;;;;;8.93;5.13;;;13.40;99.90;;;;;;5049063;28;20103;-78
2022/08/12 05:08:15;;;;;;;8.68;5.03;;;13.50;99.90;;;;;;5049695;28;20485;-79
2022/08/12 05:10:46;;;;;;;9.63;4.88;;;13.60;99.90;;;;;;5027196;28;20108;-79
2022/08/12 05:13:15;;;;;;;7.03;5.03;;;13.70;99.90;;;;;;5044022;28;20446;-79
2022/08/12 05:15:44;;;;;;;9.55;5.95;;;13.80;99.90;;;;;;5046383;28;20032;-79
2022/08/12 05:18:10;;;;;;;8.15;4.90;;;13.90;99.90;;;;;;5047219;28;20072;-76
2022/08/12 05:20:36;;;;;;;11.50;4.55;;;14.00;99.90;;;;;;5049376;28;20045;-76
2022/08/12 05:23:20;;;;;;;12.75;5.57;;;14.10;99.90;;;;;;5029563;28;20025;-76
2022/08/12 05:25:48;;;;;;;16.77;4.97;;;14.10;99.90;;;;;;5048423;28;20091;-69
2022/08/12 05:28:15;;;;;;;13.70;5.20;;;14.20;99.90;;;;;;5051189;28;20018;-76
2022/08/12 05:30:42;;;;;;;13.45;5.45;;;14.30;99.90;;;;;;5042443;28;20021;-76
2022/08/12 05:33:09;;;;;;;8.45;5.43;;;14.40;99.90;;;;;;5050388;28;20574;-76
2022/08/12 05:35:41;;;;;;;9.10;5.35;;;14.50;99.90;;;;;;5047289;28;20044;-76
2022/08/12 05:40:57;;;;;;;19.50;5.13;;;14.60;99.90;;;;;;5049604;28;20091;-76
2022/08/12 05:43:23;;;;;;;14.73;5.43;;;14.70;99.90;;;;;;5050169;28;20029;-76
2022/08/12 05:45:50;;;;;;;11.07;5.43;;;14.80;99.90;;;;;;5049307;28;20029;-76
2022/08/12 05:48:16;;;;;;;15.93;5.07;;;14.90;99.90;;;;;;5052201;28;20045;-69
2022/08/12 05:50:44;;;;;;;11.52;5.30;;;15.00;99.90;;;;;;5050609;28;20135;-68
2022/08/12 05:53:09;;;;;;;16.33;5.15;;;15.20;99.90;;;;;;5052784;28;20029;-69
2022/08/12 05:55:36;;;;;;;10.93;4.60;;;15.30;99.90;;;;;;5051950;28;20500;-69
2022/08/12 05:58:03;;;;;;;15.45;4.50;;;15.40;99.90;;;;;;5055411;28;20025;-69
2022/08/12 06:00:30;;;;;;;17.27;6.20;;;15.50;99.90;;;;;;5056200;28;20025;-69
2022/08/12 06:02:59;;;;;;;10.82;4.00;;;15.60;99.90;;;;;;5056111;28;20029;-69
2022/08/12 06:05:29;;;;;;;7.22;3.97;;;15.70;99.90;;;;;;5056336;28;20058;-69
2022/08/12 06:07:56;;;;;;;12.02;3.90;;;15.80;99.90;;;;;;5056041;28;20032;-69
2022/08/12 06:10:22;;;;;;;11.75;3.80;;;15.90;99.90;;;;;;5058955;28;20024;-69
2022/08/12 06:12:48;;;;;;;8.23;3.95;;;16.00;99.90;;;;;;5055855;28;20017;-69
2022/08/12 06:15:16;;;;;;;13.25;3.92;;;16.20;99.90;;;;;;5062830;28;20044;-73
2022/08/12 06:17:42;;;;;;;13.60;3.40;;;16.20;99.90;;;;;;5061320;28;20063;-73
2022/08/12 06:20:12;;;;;;;8.43;3.40;;;16.30;99.90;;;;;;5060315;28;20025;-73
2022/08/12 06:22:38;;;;;;;8.10;3.60;;;16.40;99.90;;;;;;5056732;28;20024;-73
2022/08/12 06:25:05;;;;;;;10.25;4.50;;;16.50;99.90;;;;;;5054550;28;20469;-77
2022/08/12 06:27:31;;;;;;;10.02;3.15;;;16.70;99.90;;;;;;5053496;28;20112;-72
2022/08/12 06:29:57;;;;;;;10.40;3.33;;;16.80;99.90;;;;;;5052008;28;20021;-72
2022/08/12 06:32:23;;;;;;;6.15;3.10;;;16.90;99.90;;;;;;5050184;28;20117;-72
2022/08/12 06:34:49;;;;;;;13.85;3.40;;;17.00;99.90;;;;;;5050907;28;20029;-72
2022/08/12 06:37:17;;;;;;;11.52;3.95;;;17.10;99.90;;;;;;5050846;28;20029;-72
2022/08/12 06:39:43;;;;;;;6.90;3.53;;;17.20;99.90;;;;;;5051288;28;20082;-72
2022/08/12 06:44:53;;;;;;;9.48;3.58;;;17.40;99.90;;;;;;5052249;28;20071;-72
2022/08/12 06:47:20;;;;;;;12.02;3.60;;;17.50;99.90;;;;;;5052326;28;20052;-72
2022/08/12 06:49:48;;;;;;;7.60;3.25;;;17.60;99.90;;;;;;5050719;28;20521;-72
2022/08/12 06:52:14;;;;;;;8.40;3.40;;;17.70;99.90;;;;;;5051124;28;20056;-72
2022/08/12 06:54:41;;;;;;;5.22;3.35;;;17.80;99.90;;;;;;5053520;28;20106;-72
2022/08/12 06:57:07;;;;;;;8.05;3.00;;;17.80;99.90;;;;;;5051636;28;20051;-72
2022/08/12 06:59:34;;;;;;;6.35;3.50;;;17.80;99.90;;;;;;5035196;28;20136;-73
2022/08/12 07:02:00;;;;;;;9.02;3.13;;;17.90;99.90;;;;;;5035261;28;20057;-73
2022/08/12 07:04:25;;;;;;;8.23;3.70;;;18.00;99.90;;;;;;5035184;28;20458;-73
2022/08/12 07:06:51;;;;;;;4.85;2.90;;;18.10;99.90;;;;;;5035658;28;20041;-73
2022/08/12 07:09:16;;;;;;;8.65;3.00;;;18.20;99.90;;;;;;5016864;28;20032;-74
2022/08/12 07:11:43;;;;;;;8.00;2.78;;;18.20;99.90;;;;;;5035345;28;20412;-73
2022/08/12 07:14:08;;;;;;;6.32;2.92;;;18.30;99.90;;;;;;5035182;28;20072;-73
2022/08/12 07:16:52;;;;;;;7.30;2.95;;;18.30;99.90;;;;;;5034976;28;20030;-72
2022/08/12 07:19:19;;;;;;;4.75;2.85;;;18.40;99.90;;;;;;5034893;28;20095;-74
2022/08/12 07:21:45;;;;;;;7.68;3.15;;;18.50;99.90;;;;;;5035465;28;20041;-74
2022/08/12 07:24:11;;;;;;;8.13;2.85;;;18.50;99.90;;;;;;5035059;28;20469;-74
2022/08/12 07:26:40;;;;;;;5.90;3.22;;;18.70;99.90;;;;;;5034885;28;20025;-74
2022/08/12 07:29:09;;;;;;;5.50;2.53;;;18.80;99.90;;;;;;5034914;28;20370;-74
2022/08/12 07:31:37;;;;;;;13.52;3.00;;;18.90;99.90;;;;;;5034737;28;20484;-74
2022/08/12 07:34:04;;;;;;;7.43;2.60;;;18.90;99.90;;;;;;5034860;28;20035;-74
2022/08/12 07:36:32;;;;;;;6.28;2.67;;;19.00;99.90;;;;;;5034513;28;20032;-74
2022/08/12 07:38:58;;;;;;;5.95;2.45;;;19.10;99.90;;;;;;5034768;28;20037;-74
2022/08/12 07:41:28;;;;;;;6.07;3.22;;;19.20;99.90;;;;;;5034676;28;20025;-74
2022/08/12 07:43:57;;;;;;;6.05;2.60;;;19.30;99.90;;;;;;5033088;28;20470;-74
2022/08/12 07:46:33;;;;;;;5.15;2.45;;;19.40;99.90;;;;;;5034509;28;20080;-74
2022/08/12 07:49:00;;;;;;;5.93;2.40;;;19.50;99.90;;;;;;5016972;28;20024;-74
2022/08/12 07:51:27;;;;;;;5.38;2.25;;;19.60;99.90;;;;;;5034367;28;20076;-74
2022/08/12 07:53:55;;;;;;;6.10;2.50;;;19.60;99.90;;;;;;5034376;28;20032;-74
2022/08/12 07:56:20;;;;;;;6.70;2.83;;;19.80;99.90;;;;;;5034303;28;20477;-74
2022/08/12 07:58:46;;;;;;;6.75;2.50;;;19.90;99.90;;;;;;5034309;28;20025;-74
2022/08/12 08:01:18;;;;;;;9.48;3.15;;;19.90;99.90;;;;;;5034041;28;20029;-75
2022/08/12 08:06:31;;;;;;;9.85;2.60;;;20.10;99.90;;;;;;5034360;28;20079;-74
2022/08/12 08:08:57;;;;;;;11.07;3.05;;;20.10;99.90;;;;;;5034203;28;20056;-74
2022/08/12 08:14:09;;;;;;;6.40;3.05;;;20.20;99.90;;;;;;5034474;28;20024;-74
2022/08/12 08:16:39;;;;;;;3.55;2.30;;;20.20;99.90;;;;;;5033860;28;20632;-74
2022/08/12 08:19:06;;;;;;;7.15;2.40;;;20.30;99.90;;;;;;5034021;28;20033;-74
2022/08/12 08:21:34;;;;;;;9.32;2.50;;;20.40;99.90;;;;;;5033762;28;20167;-74
2022/08/12 08:24:15;;;;;;;9.75;3.08;;;20.50;99.90;;;;;;5033786;28;20025;-74
2022/08/12 08:26:49;;;;;;;6.28;2.58;;;20.50;99.90;;;;;;5034024;28;20032;-74
2022/08/12 08:29:16;;;;;;;6.18;2.67;;;20.60;99.90;;;;;;5034163;28;20013;-74
2022/08/12 08:31:45;;;;;;;7.10;2.28;;;20.70;99.90;;;;;;5015736;28;20030;-74
2022/08/12 08:34:14;;;;;;;9.10;2.47;;;20.80;99.90;;;;;;5033572;28;20029;-74
2022/08/12 08:36:41;;;;;;;5.55;2.42;;;20.90;99.90;;;;;;5033485;28;20033;-74
2022/08/12 08:39:07;;;;;;;6.05;2.70;;;21.00;99.90;;;;;;5034157;28;20490;-74
2022/08/12 08:44:17;;;;;;;6.57;2.33;;;21.20;99.90;;;;;;5033774;28;20117;-74
2022/08/12 08:46:43;;;;;;;7.50;2.30;;;21.30;99.90;;;;;;5033224;28;20113;-75
2022/08/12 08:49:10;;;;;;;8.30;2.60;;;21.40;99.90;;;;;;5033688;28;20055;-74
2022/08/12 08:51:37;;;;;;;6.78;2.20;;;21.50;99.90;;;;;;5033542;28;20028;-74
2022/08/12 08:54:03;;;;;;;6.85;2.20;;;21.50;99.90;;;;;;5033889;28;20043;-74
2022/08/12 08:56:29;;;;;;;4.82;2.22;;;21.60;99.90;;;;;;5061397;28;20456;-74
2022/08/12 08:58:56;;;;;;;10.80;2.45;;;21.60;99.90;;;;;;5073528;28;20027;-74
2022/08/12 09:01:21;;;;;;;5.97;2.17;;;21.70;99.90;;;;;;5073670;28;20461;-74
2022/08/12 09:03:48;;;;;;;4.45;2.13;;;21.60;99.90;;;;;;5073594;28;20046;-74
2022/08/12 09:06:14;;;;;;;6.80;2.10;;;21.70;99.90;;;;;;5072650;28;20029;-73
2022/08/12 09:08:41;;;;;;;6.00;2.40;;;21.80;99.90;;;;;;5053393;28;20382;-74
2022/08/12 09:13:51;;;;;;;3.67;2.20;;;21.90;99.90;;;;;;5053106;28;20163;-74
2022/08/12 09:16:17;;;;;;;10.60;2.40;;;22.10;99.90;;;;;;5052815;28;20716;-74
2022/08/12 09:18:42;;;;;;;6.20;2.30;;;22.20;99.90;;;;;;5053287;28;20481;-74
2022/08/12 09:21:08;;;;;;;5.93;2.42;;;22.30;99.90;;;;;;5052808;28;20079;-74
2022/08/12 09:23:38;;;;;;;11.27;2.45;;;22.40;99.90;;;;;;5052872;28;20092;-73
2022/08/12 09:26:03;;;;;;;9.32;2.05;;;22.50;99.90;;;;;;5053487;28;20030;-74
2022/08/12 09:28:31;;;;;;;7.05;2.20;;;22.70;99.90;;;;;;5052935;28;20031;-74
2022/08/12 09:30:58;;;;;;;7.75;2.33;;;22.90;99.90;;;;;;5053760;28;20017;-74
2022/08/12 09:33:32;;;;;;;9.02;2.22;;;23.10;99.90;;;;;;5057423;28;20025;-74
2022/08/12 09:35:58;;;;;;;8.63;2.13;;;23.30;99.90;;;;;;5038693;28;20095;-74
2022/08/12 09:38:24;;;;;;;3.40;1.90;;;23.40;99.90;;;;;;5056658;28;20470;-74
2022/08/12 09:40:50;;;;;;;7.80;2.38;;;23.60;99.90;;;;;;5056588;28;20027;-74
2022/08/12 09:46:01;;;;;;;4.95;2.28;;;24.00;99.90;;;;;;5056766;28;20028;-74
2022/08/12 09:48:27;;;;;;;5.63;2.30;;;24.20;99.90;;;;;;5056757;28;20053;-74
2022/08/12 09:50:53;;;;;;;2.85;2.20;;;24.40;99.90;;;;;;5056771;28;20420;-74
2022/08/12 09:53:24;;;;;;;6.07;1.80;;;24.40;99.90;;;;;;5056861;28;20025;-74
2022/08/12 09:55:55;;;;;;;5.13;2.17;;;24.60;99.90;;;;;;5056583;28;20040;-74
2022/08/12 09:58:27;;;;;;;2.38;1.73;;;24.70;99.90;;;;;;5038773;28;20020;-74
2022/08/12 10:01:03;;;;;;;10.20;2.35;;;24.70;99.90;;;;;;5056530;28;20108;-74
2022/08/12 10:03:30;;;;;;;4.20;1.70;;;24.90;99.90;;;;;;5056406;28;20339;-74
2022/08/12 10:05:58;;;;;;;5.68;2.00;;;24.80;99.90;;;;;;5056338;28;20025;-74
2022/08/12 10:08:34;;;;;;;6.72;1.80;;;24.70;99.90;;;;;;5047719;28;20033;-76
2022/08/12 10:13:48;;;;;;;5.10;2.03;;;24.50;99.90;;;;;;5039481;28;20079;-78
2022/08/12 10:16:23;;;;;;;4.95;1.85;;;24.60;99.90;;;;;;5038409;28;20063;-78
2022/08/12 10:18:54;;;;;;;5.80;2.20;;;24.70;99.90;;;;;;5038147;28;20108;-78
2022/08/12 10:21:35;;;;;;;7.88;2.03;;;24.70;99.90;;;;;;5052186;28;20402;-78
2022/08/12 10:24:08;;;;;;;4.68;2.20;;;24.70;99.90;;;;;;5049462;28;20405;-78
2022/08/12 10:29:37;;;;;;;4.95;2.22;;;24.70;99.40;;;;;;5048953;28;20032;-78
2022/08/12 10:32:10;;;;;;;6.40;2.00;;;24.40;99.70;;;;;;5051865;28;20025;-78
2022/08/12 10:34:38;;;;;;;4.80;2.00;;;24.20;99.90;;;;;;5052388;28;20040;-78
2022/08/12 10:37:04;;;;;;;5.18;2.03;;;24.10;99.90;;;;;;5052170;28;20036;-78
2022/08/12 10:39:36;;;;;;;6.25;2.15;;;24.00;99.90;;;;;;5051891;28;20025;-78
2022/08/12 10:44:50;;;;;;;4.25;2.10;;;23.90;99.90;;;;;;5040578;28;20512;-79
2022/08/12 10:47:19;;;;;;;5.60;2.30;;;23.90;99.90;;;;;;5046358;28;20033;-81
2022/08/12 10:49:45;;;;;;;5.70;2.10;;;23.70;99.90;;;;;;5052068;28;20462;-77
2022/08/12 10:52:12;;;;;;;3.55;1.88;;;23.80;99.80;;;;;;5050482;28;20090;-77
2022/08/12 10:54:39;;;;;;;4.60;2.00;;;23.90;99.90;;;;;;5052251;28;20025;-78
2022/08/12 10:57:05;;;;;;;3.85;2.42;;;24.00;99.20;;;;;;5051331;28;20435;-83
2022/08/12 10:59:30;;;;;;;3.88;2.00;;;24.30;99.10;;;;;;5045734;28;20040;-77
2022/08/12 11:01:58;;;;;;;7.22;1.80;;;24.60;98.80;;;;;;5045656;28;20128;-77
2022/08/12 11:04:25;;;;;;;3.50;1.52;;;24.80;98.30;;;;;;5044745;28;20112;-77
2022/08/12 11:06:52;;;;;;;6.18;1.88;;;25.20;97.90;;;;;;5046598;28;20090;-77
2022/08/12 11:09:20;;;;;;;3.95;1.80;;;25.50;97.60;;;;;;5045563;28;20042;-77
2022/08/12 11:11:47;;;;;;;4.18;1.80;;;25.60;96.70;;;;;;5044721;28;20033;-78
2022/08/12 11:14:18;;;;;;;7.80;2.25;;;25.90;95.00;;;;;;5048281;28;20029;-77
2022/08/12 11:16:44;;;;;;;5.25;2.00;;;26.10;94.60;;;;;;5051437;28;20037;-77
2022/08/12 11:19:13;;;;;;;5.30;2.15;;;26.30;95.30;;;;;;5051267;28;20021;-77
2022/08/12 11:21:39;;;;;;;2.78;1.67;;;26.40;96.10;;;;;;5051682;28;20032;-77
2022/08/12 11:24:05;;;;;;;4.90;1.50;;;26.70;93.10;;;;;;5050866;28;20033;-78
2022/08/12 11:26:31;;;;;;;7.40;1.92;;;27.00;92.60;;;;;;5051636;28;20367;-78
2022/08/12 11:28:57;;;;;;;3.72;1.88;;;27.00;92.50;;;;;;5051585;28;20021;-77
2022/08/12 11:31:23;;;;;;;2.88;1.50;;;27.20;91.90;;;;;;5051999;28;20365;-78
2022/08/12 11:33:49;;;;;;;8.68;2.00;;;27.50;92.20;;;;;;5052497;28;20429;-77
2022/08/12 11:36:15;;;;;;;5.47;1.70;;;27.90;91.30;;;;;;5051230;28;20021;-77
2022/08/12 11:38:41;;;;;;;2.42;1.50;;;28.10;90.20;;;;;;5049536;28;20027;-78
2022/08/12 11:41:06;;;;;;;3.92;1.38;;;28.00;88.70;;;;;;5050634;28;20024;-77
2022/08/12 11:43:32;;;;;;;5.68;1.50;;;28.10;88.90;;;;;;5050171;28;20545;-77
2022/08/12 11:45:58;;;;;;;1.42;1.13;;;28.00;87.40;;;;;;5050643;28;20452;-77
2022/08/12 11:48:24;;;;;;;3.25;1.60;;;27.90;86.00;;;;;;5051380;28;20025;-78
2022/08/12 11:50:50;;;;;;;2.95;1.60;;;27.80;87.00;;;;;;5050770;28;20420;-80
2022/08/12 11:53:15;;;;;;;5.07;2.00;;;27.80;86.60;;;;;;5050646;28;20073;-80
2022/08/12 11:55:41;;;;;;;4.75;1.60;;;27.40;86.60;;;;;;5051001;28;20458;-78
2022/08/12 11:58:06;;;;;;;6.38;1.60;;;26.90;88.20;;;;;;5050784;28;20104;-77
2022/08/12 12:00:32;;;;;;;4.80;1.70;;;26.40;89.80;;;;;;5050671;28;20036;-78
2022/08/12 12:02:58;;;;;;;6.53;1.48;;;25.90;90.50;;;;;;5050539;28;20059;-77
2022/08/12 12:05:23;;;;;;;3.67;1.58;;;25.50;90.90;;;;;;5050721;28;20032;-73
2022/08/12 12:07:49;;;;;;;4.57;1.40;;;25.60;91.00;;;;;;5050548;28;20040;-73
2022/08/12 12:10:18;;;;;;;7.28;1.52;;;25.80;89.20;;;;;;5051242;28;20079;-72
2022/08/12 12:12:44;;;;;;;8.82;1.90;;;25.60;90.50;;;;;;5046323;28;20040;-73
2022/08/12 12:15:09;;;;;;;1.80;1.20;;;25.40;90.60;;;;;;5050541;28;20020;-73
2022/08/12 12:17:37;;;;;;;4.95;1.50;;;25.40;90.50;;;;;;5050626;28;20064;-76
2022/08/12 12:20:07;;;;;;;3.38;1.42;;;25.50;90.50;;;;;;5052203;28;20032;-84
2022/08/12 12:22:33;;;;;;;3.72;1.40;;;26.00;89.10;;;;;;5053527;28;20059;-74
2022/08/12 12:24:58;;;;;;;3.25;1.23;;;26.60;87.30;;;;;;5054085;28;20064;-75
2022/08/12 12:27:24;;;;;;;4.38;1.45;;;27.00;85.50;;;;;;5053667;28;20064;-75
2022/08/12 12:29:50;;;;;;;2.55;1.52;;;27.40;84.10;;;;;;5053869;28;20036;-74
2022/08/12 12:32:15;;;;;;;4.53;1.50;;;27.70;82.10;;;;;;5053602;28;20457;-75
2022/08/12 12:34:41;;;;;;;2.97;1.50;;;28.00;78.80;;;;;;5053714;28;20028;-75
2022/08/12 12:37:11;;;;;;;5.72;1.40;;;28.30;76.80;;;;;;5054176;28;20178;-76
2022/08/12 12:39:37;;;;;;;3.20;1.27;;;28.70;76.40;;;;;;5053558;28;20024;-74
2022/08/12 12:42:03;;;;;;;3.45;1.05;;;28.80;77.90;;;;;;5053357;28;20377;-75
2022/08/12 12:44:29;;;;;;;2.00;1.00;;;28.60;74.90;;;;;;5053371;28;20040;-74
2022/08/12 12:46:54;;;;;;;2.83;1.20;;;28.10;75.40;;;;;;5051202;28;20086;-78
2022/08/12 12:49:20;;;;;;;2.17;1.25;;;27.70;79.00;;;;;;5049801;28;20025;-79
2022/08/12 12:51:48;;;;;;;3.97;1.20;;;27.60;77.40;;;;;;5050974;28;20371;-74
2022/08/12 12:54:15;;;;;;;4.70;1.20;;;27.60;77.70;;;;;;5053425;28;20096;-70
2022/08/12 12:56:41;;;;;;;2.38;1.23;;;27.80;76.80;;;;;;5053307;28;20128;-70
2022/08/12 12:59:07;;;;;;;2.25;1.10;;;28.20;75.60;;;;;;5057666;28;20036;-70
2022/08/12 13:01:34;;;;;;;1.95;1.20;;;28.40;76.80;;;;;;5055289;28;20461;-70
2022/08/12 13:04:00;;;;;;;2.17;1.00;;;28.70;75.00;;;;;;5053430;28;20061;-71
2022/08/12 13:06:28;;;;;;;2.30;1.10;;;28.70;72.50;;;;;;5052750;28;20080;-70
2022/08/12 13:08:55;;;;;;;6.38;1.20;;;28.40;72.10;;;;;;5053620;28;20108;-70
2022/08/12 13:11:21;;;;;;;2.53;1.20;;;27.70;73.80;;;;;;5053671;28;20025;-70
2022/08/12 13:13:52;;;;;;;3.80;1.20;;;27.10;76.40;;;;;;5053414;28;20461;-70
2022/08/12 13:16:20;;;;;;;3.28;1.27;;;27.00;75.90;;;;;;5053516;28;20029;-70
2022/08/12 13:18:50;;;;;;;1.88;1.00;;;27.30;74.90;;;;;;5053436;28;20062;-70
2022/08/12 13:21:17;;;;;;;3.33;1.00;;;27.50;77.50;;;;;;5052453;28;20021;-70
2022/08/12 13:23:47;;;;;;;2.85;1.15;;;27.60;75.70;;;;;;5052661;28;20032;-70
2022/08/12 13:26:14;;;;;;;2.10;1.20;;;27.80;74.60;;;;;;5052238;28;20441;-70
2022/08/12 13:28:43;;;;;;;2.20;1.20;;;27.50;73.50;;;;;;5052298;28;20518;-71
2022/08/12 13:31:10;;;;;;;5.30;1.30;;;27.10;73.30;;;;;;5052445;28;20100;-70
2022/08/12 13:33:35;;;;;;;2.42;1.20;;;27.10;76.70;;;;;;5049493;28;20378;-70
2022/08/12 13:36:02;;;;;;;1.90;0.93;;;27.40;75.50;;;;;;5051821;28;20017;-70
2022/08/12 13:38:39;;;;;;;2.95;1.20;;;27.60;76.20;;;;;;5052262;28;20127;-71
2022/08/12 13:41:17;;;;;;;2.47;1.30;;;27.80;75.10;;;;;;5051923;28;20478;-70
2022/08/12 13:43:42;;;;;;;2.00;1.00;;;28.00;73.90;;;;;;5051859;28;20408;-70
2022/08/12 13:46:12;;;;;;;2.40;1.08;;;28.10;74.60;;;;;;5051692;28;20050;-70
2022/08/12 13:48:37;;;;;;;4.55;1.02;;;28.00;74.70;;;;;;5052006;28;20078;-70
2022/08/12 13:51:03;;;;;;;2.85;1.20;;;27.60;73.60;;;;;;5052079;28;20096;-71
2022/08/12 13:53:28;;;;;;;5.63;1.77;;;27.30;74.30;;;;;;5051610;28;20489;-71
2022/08/12 13:55:54;;;;;;;1.88;1.08;;;27.00;75.70;;;;;;5051946;28;20057;-71
2022/08/12 13:58:20;;;;;;;5.85;1.30;;;26.90;75.90;;;;;;5052259;28;20033;-70
2022/08/12 14:00:50;;;;;;;4.28;1.15;;;26.80;75.90;;;;;;5052252;28;20044;-70
2022/08/12 14:03:19;;;;;;;3.63;1.10;;;26.70;75.40;;;;;;5052069;28;20025;-70
2022/08/12 14:05:45;;;;;;;1.55;1.00;;;26.40;76.80;;;;;;5052126;28;20029;-70
2022/08/12 14:08:14;;;;;;;2.80;1.70;;;26.30;78.40;;;;;;5051594;28;20060;-70
2022/08/12 14:10:45;;;;;;;3.33;1.00;;;26.20;77.10;;;;;;5052227;28;20100;-71
2022/08/12 14:13:18;;;;;;;2.38;0.90;;;26.00;76.60;;;;;;5051720;28;20355;-70
2022/08/12 14:15:49;;;;;;;2.20;1.23;;;25.50;77.30;;;;;;5051807;28;20469;-70
2022/08/12 14:18:22;;;;;;;1.98;1.25;;;25.10;78.70;;;;;;5048327;28;20032;-70
2022/08/12 14:20:57;;;;;;;4.53;1.15;;;24.80;78.90;;;;;;5054920;28;20457;-69
2022/08/12 14:23:24;;;;;;;1.13;1.00;;;24.50;77.70;;;;;;5053896;28;20041;-71
2022/08/12 14:25:51;;;;;;;4.88;1.08;;;24.30;78.20;;;;;;5036682;28;20029;-69
2022/08/12 14:28:18;;;;;;;5.47;1.35;;;24.30;78.80;;;;;;5054645;28;20033;-69
2022/08/12 14:30:59;;;;;;;1.77;0.90;;;24.20;79.10;;;;;;5054957;28;20049;-70
2022/08/12 14:33:33;;;;;;;1.77;0.90;;;24.30;78.70;;;;;;5054338;28;20450;-70
2022/08/12 14:36:00;;;;;;;4.40;0.90;;;24.40;78.90;;;;;;5054528;28;20529;-69
2022/08/12 14:38:29;;;;;;;4.22;1.08;;;24.40;79.30;;;;;;5054293;28;20064;-69
2022/08/12 14:40:57;;;;;;;3.05;0.95;;;24.60;78.70;;;;;;5054850;28;20123;-69